Time;durP1;ratioP1;P1;durP2;ratioP2;P2;SDS_P1;SDS_P2;PMS_P1;PMS_P2;Temp;Humidity;BMP_temperature;BMP_pressure;BME280_temperature;BME280_humidity;BME280_pressure;Samples;Min_cycle;Max_cycle;Signal;HPM_P1;HPM_P2
2022/04/11 07:16:59;;;;;;;6.45;1.50;;;19.30;46.10;;;;;;5105666;27;20478;-66
2022/04/11 07:19:25;;;;;;;5.22;1.60;;;19.40;45.90;;;;;;5104702;28;20040;-67
2022/04/11 07:21:51;;;;;;;6.30;1.30;;;19.50;46.60;;;;;;5108297;28;20109;-66
2022/04/11 07:24:17;;;;;;;8.30;1.30;;;19.50;47.00;;;;;;5082880;28;20032;-67
2022/04/11 07:26:42;;;;;;;10.18;1.35;;;19.50;47.10;;;;;;5073329;28;20098;-68
2022/04/11 07:29:09;;;;;;;6.78;1.30;;;19.60;47.20;;;;;;5080495;28;20040;-69
2022/04/11 07:31:35;;;;;;;5.13;1.50;;;19.60;47.20;;;;;;5087657;28;20032;-68
2022/04/11 07:34:01;;;;;;;4.95;1.67;;;19.60;47.20;;;;;;5083696;28;20043;-67
2022/04/11 07:36:28;;;;;;;6.45;1.95;;;19.70;47.10;;;;;;5085742;28;20045;-67
2022/04/11 07:38:55;;;;;;;4.28;1.88;;;19.70;47.10;;;;;;5083804;28;20036;-67
2022/04/11 07:41:21;;;;;;;3.63;1.33;;;19.70;47.10;;;;;;5087014;28;20071;-68
2022/04/11 07:43:47;;;;;;;3.10;1.60;;;19.70;46.90;;;;;;5086017;28;20066;-68
2022/04/11 07:46:12;;;;;;;8.05;1.73;;;19.70;46.90;;;;;;5088784;28;20044;-69
2022/04/11 07:48:38;;;;;;;4.25;1.42;;;19.70;46.80;;;;;;5084754;28;20040;-67
2022/04/11 07:51:04;;;;;;;8.00;1.92;;;19.70;46.70;;;;;;5070435;28;20139;-68
2022/04/11 07:53:30;;;;;;;6.22;1.55;;;19.70;46.60;;;;;;5083064;28;20042;-67
2022/04/11 07:55:55;;;;;;;14.43;2.00;;;19.70;46.50;;;;;;5081572;28;20044;-63
2022/04/11 07:58:21;;;;;;;9.13;1.90;;;19.80;46.70;;;;;;5081306;28;20020;-70
2022/04/11 08:00:53;;;;;;;7.47;2.22;;;19.80;46.70;;;;;;5074865;28;20047;-69
2022/04/11 08:03:20;;;;;;;5.60;1.85;;;19.80;46.70;;;;;;5079707;28;20036;-67
2022/04/11 08:05:46;;;;;;;13.45;2.42;;;19.80;46.90;;;;;;5086248;28;20059;-69
2022/04/11 08:08:12;;;;;;;6.38;1.70;;;19.80;46.80;;;;;;5084830;28;20554;-69
2022/04/11 08:10:39;;;;;;;3.40;1.88;;;19.90;46.60;;;;;;5085144;28;20127;-69
2022/04/11 08:13:05;;;;;;;7.47;1.80;;;19.80;46.50;;;;;;5086831;28;20115;-69
2022/04/11 08:15:31;;;;;;;5.97;1.80;;;19.90;46.10;;;;;;5119551;28;20773;-69
2022/04/11 08:17:58;;;;;;;4.55;1.90;;;19.90;45.80;;;;;;5086199;28;20043;-68
2022/04/11 08:20:25;;;;;;;5.22;2.10;;;19.90;45.70;;;;;;5086924;28;20068;-69
2022/04/11 08:22:51;;;;;;;8.25;2.10;;;19.90;45.60;;;;;;5087002;28;20097;-69
2022/04/11 08:25:17;;;;;;;6.35;1.63;;;19.90;45.60;;;;;;5087310;28;20123;-68
2022/04/11 08:27:43;;;;;;;6.25;1.83;;;20.00;45.60;;;;;;5076384;28;20040;-69
2022/04/11 08:30:12;;;;;;;9.10;2.15;;;20.00;45.60;;;;;;5073042;28;20054;-68
2022/04/11 08:32:46;;;;;;;5.57;1.90;;;20.00;45.70;;;;;;5073176;28;20044;-69
2022/04/11 08:35:12;;;;;;;5.65;1.90;;;20.00;45.70;;;;;;5073498;28;20041;-72
2022/04/11 08:37:40;;;;;;;6.43;2.05;;;20.10;45.80;;;;;;5073261;28;20036;-69
2022/04/11 08:40:10;;;;;;;5.80;1.70;;;20.10;45.90;;;;;;5073414;28;20549;-69
2022/04/11 08:42:40;;;;;;;7.95;1.83;;;20.10;45.90;;;;;;5071524;28;20043;-69
2022/04/11 08:45:07;;;;;;;7.13;1.60;;;20.10;46.00;;;;;;5073353;28;20044;-69
2022/04/11 08:47:34;;;;;;;5.18;1.75;;;20.20;46.10;;;;;;5073115;28;20509;-69
2022/04/11 08:50:03;;;;;;;6.25;1.90;;;20.20;46.20;;;;;;5072778;28;20044;-69
2022/04/11 08:52:31;;;;;;;6.05;1.60;;;20.30;46.30;;;;;;5073188;28;20111;-68
2022/04/11 08:54:57;;;;;;;4.75;1.60;;;20.40;46.30;;;;;;5072982;28;20051;-69
2022/04/11 08:57:23;;;;;;;5.55;1.50;;;20.40;46.30;;;;;;5072582;28;20041;-69
2022/04/11 08:59:49;;;;;;;4.60;1.65;;;20.50;46.30;;;;;;5072627;28;20037;-69
2022/04/11 09:02:15;;;;;;;3.90;1.70;;;20.50;46.30;;;;;;5072998;28;20141;-69
2022/04/11 09:04:51;;;;;;;5.38;1.73;;;20.50;46.30;;;;;;5072838;28;20059;-68
2022/04/11 09:07:17;;;;;;;5.78;1.73;;;20.60;46.30;;;;;;5071404;28;20556;-69
2022/04/11 09:09:43;;;;;;;4.05;1.77;;;20.60;46.30;;;;;;5072100;28;20037;-69
2022/04/11 09:12:16;;;;;;;3.85;1.50;;;20.70;46.40;;;;;;5072423;28;20090;-69
2022/04/11 09:14:43;;;;;;;3.47;1.52;;;20.70;46.40;;;;;;5071926;28;20033;-69
2022/04/11 09:17:09;;;;;;;4.03;1.55;;;20.70;46.30;;;;;;5072855;28;20056;-69
2022/04/11 09:19:38;;;;;;;4.38;1.60;;;20.80;46.40;;;;;;5071599;28;20032;-69
2022/04/11 09:22:05;;;;;;;4.85;1.67;;;20.80;46.40;;;;;;5072466;28;20040;-69
2022/04/11 09:24:31;;;;;;;3.10;1.40;;;20.90;46.40;;;;;;5072358;28;20510;-68
2022/04/11 09:26:58;;;;;;;4.85;1.65;;;20.90;46.40;;;;;;5070989;28;20052;-69
2022/04/11 09:29:24;;;;;;;5.75;1.88;;;21.00;46.40;;;;;;5071809;28;20066;-69
2022/04/11 09:31:51;;;;;;;5.25;1.60;;;21.00;46.40;;;;;;5073055;28;20043;-69
2022/04/11 09:34:25;;;;;;;3.65;1.50;;;21.10;46.40;;;;;;5072543;28;20040;-69
2022/04/11 09:36:56;;;;;;;5.38;1.50;;;21.10;46.30;;;;;;5072803;28;20054;-69
2022/04/11 09:39:24;;;;;;;2.97;1.40;;;21.10;46.30;;;;;;5070955;28;20503;-69
2022/04/11 09:41:51;;;;;;;5.57;1.50;;;21.20;46.30;;;;;;5071988;28;20049;-68
2022/04/11 09:44:20;;;;;;;2.75;1.42;;;21.20;46.30;;;;;;5072164;28;20063;-69
2022/04/11 09:46:46;;;;;;;5.55;1.40;;;21.20;46.20;;;;;;5072254;28;20101;-69
2022/04/11 09:49:12;;;;;;;5.78;1.65;;;21.30;46.20;;;;;;5071514;28;20040;-69
2022/04/11 09:52:03;;;;;;;5.72;1.63;;;21.30;46.20;;;;;;5072312;28;20041;-69
2022/04/11 09:54:29;;;;;;;4.68;1.10;;;21.30;46.10;;;;;;5072298;28;20045;-69
2022/04/11 09:56:58;;;;;;;3.20;1.52;;;21.40;46.10;;;;;;5071320;28;20121;-69
2022/04/11 09:59:24;;;;;;;;;;;21.40;46.10;;;;;;5071963;28;20063;-68
2022/04/11 10:01:52;;;;;;;4.25;1.40;;;21.40;45.90;;;;;;5071909;28;19932;-68
2022/04/11 10:04:21;;;;;;;4.05;1.52;;;21.50;46.00;;;;;;5071105;28;20123;-69
2022/04/11 10:06:48;;;;;;;3.03;1.27;;;21.50;45.90;;;;;;5071702;28;20129;-68
2022/04/11 10:09:14;;;;;;;2.72;1.30;;;21.50;45.90;;;;;;5071365;28;20041;-68
2022/04/11 10:11:45;;;;;;;3.00;1.50;;;21.50;45.80;;;;;;5071369;28;20119;-69
2022/04/11 10:14:11;;;;;;;4.68;1.58;;;21.50;45.80;;;;;;5071651;28;20036;-68
2022/04/11 10:16:44;;;;;;;3.00;1.30;;;21.50;45.80;;;;;;5071564;28;20060;-69
2022/04/11 10:19:11;;;;;;;2.78;1.33;;;21.60;45.70;;;;;;5070930;28;20048;-68
2022/04/11 10:21:42;;;;;;;5.82;1.40;;;21.60;45.70;;;;;;5071490;28;20487;-69
2022/04/11 10:24:35;;;;;;;2.50;1.20;;;21.60;45.70;;;;;;5071702;28;20469;-69
2022/04/11 10:27:23;;;;;;;3.30;1.40;;;21.60;45.60;;;;;;5062330;28;20223;-68
2022/04/11 10:29:50;;;;;;;;;;;21.60;45.60;;;;;;5071576;28;20070;-69
2022/04/11 10:32:18;;;;;;;2.90;1.10;;;21.70;45.60;;;;;;5070022;28;19932;-72
2022/04/11 10:35:03;;;;;;;2.58;1.15;;;21.70;45.60;;;;;;5069765;28;20053;-71
2022/04/11 10:37:49;;;;;;;4.13;1.30;;;21.70;45.50;;;;;;5071398;28;20055;-69
2022/04/11 10:40:17;;;;;;;2.92;1.00;;;21.70;45.40;;;;;;5071170;28;20044;-68
2022/04/11 10:45:31;;;;;;;2.42;1.20;;;21.70;45.30;;;;;;5071175;28;20094;-68
2022/04/11 10:47:57;;;;;;;3.28;1.25;;;21.70;45.40;;;;;;5070313;28;20055;-68
2022/04/11 10:50:25;;;;;;;2.50;1.40;;;21.70;45.30;;;;;;5070914;28;20083;-69
2022/04/11 10:52:54;;;;;;;1.75;0.98;;;21.80;45.30;;;;;;5070829;28;20123;-69
2022/04/11 10:55:25;;;;;;;2.40;1.20;;;21.80;45.30;;;;;;5071248;28;20036;-69
2022/04/11 10:57:56;;;;;;;2.75;1.30;;;21.80;45.30;;;;;;5070396;28;20499;-69
2022/04/11 11:00:31;;;;;;;2.58;1.35;;;21.80;45.20;;;;;;5071265;28;20044;-68
2022/04/11 11:02:57;;;;;;;2.58;1.10;;;21.80;45.20;;;;;;5070272;28;20090;-69
2022/04/11 11:05:29;;;;;;;2.28;1.00;;;21.90;45.20;;;;;;5070248;28;20055;-68
2022/04/11 11:08:13;;;;;;;2.90;1.00;;;21.80;45.10;;;;;;5070425;28;20119;-69
2022/04/11 11:10:48;;;;;;;2.67;1.02;;;21.80;45.00;;;;;;5070887;28;20056;-68
2022/04/11 11:13:39;;;;;;;2.00;1.00;;;21.80;45.00;;;;;;5070355;28;20032;-69
2022/04/11 11:16:07;;;;;;;2.90;1.10;;;21.90;45.10;;;;;;5070571;28;20524;-68
2022/04/11 11:18:51;;;;;;;1.40;1.00;;;21.90;45.10;;;;;;5069927;28;20056;-68
2022/04/11 11:21:32;;;;;;;1.90;0.93;;;21.80;44.90;;;;;;5070585;28;20045;-69
2022/04/11 11:24:03;;;;;;;2.15;1.20;;;21.90;45.00;;;;;;5050771;28;20073;-69
2022/04/11 11:26:46;;;;;;;2.30;0.90;;;21.90;45.00;;;;;;5050339;28;20061;-69
2022/04/11 11:29:20;;;;;;;1.17;0.77;;;21.90;44.90;;;;;;5054166;28;20052;-68
2022/04/11 11:31:48;;;;;;;1.27;0.88;;;21.90;44.90;;;;;;5064348;28;20582;-68
2022/04/11 11:34:15;;;;;;;1.75;1.05;;;21.80;44.90;;;;;;5070250;28;20510;-69
2022/04/11 11:36:41;;;;;;;3.00;1.20;;;21.90;44.90;;;;;;5070310;28;20049;-68
2022/04/11 11:39:22;;;;;;;1.75;0.90;;;21.90;44.90;;;;;;5069967;28;20036;-69
2022/04/11 11:41:52;;;;;;;2.00;0.95;;;21.90;44.90;;;;;;5069934;28;20109;-69
2022/04/11 11:44:19;;;;;;;1.00;0.90;;;21.90;44.80;;;;;;5070691;28;20147;-69
2022/04/11 11:46:56;;;;;;;2.28;1.10;;;21.90;44.90;;;;;;5070390;28;20040;-69
2022/04/11 11:49:23;;;;;;;3.58;1.27;;;21.90;44.80;;;;;;5069578;28;20131;-69
2022/04/11 11:51:50;;;;;;;1.80;1.00;;;21.90;44.70;;;;;;5068932;28;20086;-69
2022/04/11 11:54:31;;;;;;;2.45;1.00;;;21.90;44.70;;;;;;5070211;28;20052;-68
2022/04/11 11:56:57;;;;;;;3.53;1.05;;;21.90;44.60;;;;;;5069791;28;20560;-69
2022/04/11 11:59:22;;;;;;;1.38;0.95;;;21.90;44.70;;;;;;5070426;28;20212;-69
2022/04/11 12:04:37;;;;;;;2.50;0.90;;;21.90;44.60;;;;;;5073643;28;20084;-69
2022/04/11 12:07:02;;;;;;;2.85;1.02;;;22.00;44.60;;;;;;5072613;28;20479;-69
2022/04/11 12:09:39;;;;;;;3.22;0.90;;;22.00;44.60;;;;;;5073731;28;20052;-69
2022/04/11 12:12:06;;;;;;;2.10;1.20;;;22.00;44.50;;;;;;5073290;28;20052;-69
2022/04/11 12:15:00;;;;;;;3.42;1.08;;;22.00;44.40;;;;;;5073638;28;20048;-69
2022/04/11 12:17:34;;;;;;;1.48;0.90;;;22.00;44.40;;;;;;5072010;28;20076;-69
2022/04/11 12:20:06;;;;;;;1.70;0.85;;;22.10;44.30;;;;;;5073162;28;20046;-69
2022/04/11 12:22:32;;;;;;;3.45;1.10;;;22.20;44.20;;;;;;5073354;28;20404;-69
2022/04/11 12:24:58;;;;;;;1.35;0.85;;;22.20;44.30;;;;;;5073741;28;20041;-69
2022/04/11 12:27:24;;;;;;;1.83;0.90;;;22.30;44.50;;;;;;5073262;28;20115;-69
2022/04/11 12:29:50;;;;;;;1.77;0.85;;;22.60;44.40;;;;;;5072860;28;20046;-69
2022/04/11 12:32:16;;;;;;;2.28;0.90;;;23.30;43.40;;;;;;5073505;28;20044;-69
2022/04/11 12:34:44;;;;;;;1.88;1.10;;;23.90;42.20;;;;;;5073105;28;20044;-69
2022/04/11 12:37:12;;;;;;;1.80;0.85;;;24.60;41.10;;;;;;5073376;28;20076;-69
2022/04/11 12:39:55;;;;;;;1.95;0.88;;;25.10;39.90;;;;;;5071652;28;20044;-69
2022/04/11 12:42:21;;;;;;;1.40;0.88;;;25.60;39.20;;;;;;5071656;28;20721;-69
2022/04/11 12:44:48;;;;;;;2.17;0.80;;;26.00;38.60;;;;;;5073379;28;20040;-69
2022/04/11 12:47:14;;;;;;;2.08;0.90;;;26.20;37.90;;;;;;5073502;28;20071;-69
2022/04/11 12:49:47;;;;;;;2.40;0.80;;;26.40;37.50;;;;;;5070939;28;20098;-69
2022/04/11 12:52:20;;;;;;;1.88;0.98;;;26.60;37.10;;;;;;5072969;28;20064;-69
2022/04/11 12:54:49;;;;;;;2.13;0.93;;;26.80;36.70;;;;;;5073163;28;20445;-69
2022/04/11 12:57:29;;;;;;;1.45;0.80;;;27.00;36.40;;;;;;5072783;28;20399;-69
2022/04/11 12:59:55;;;;;;;1.40;0.73;;;27.20;35.90;;;;;;5072393;28;20773;-68
2022/04/11 13:02:26;;;;;;;1.15;0.70;;;27.30;35.70;;;;;;5072889;28;20049;-68
2022/04/11 13:04:54;;;;;;;1.30;0.80;;;27.30;35.30;;;;;;5072263;28;20521;-69
2022/04/11 13:07:25;;;;;;;2.75;0.77;;;27.50;35.30;;;;;;5058607;28;20048;-69
2022/04/11 13:09:52;;;;;;;2.08;0.90;;;27.50;35.00;;;;;;5051720;28;20045;-69
2022/04/11 13:12:19;;;;;;;2.63;0.77;;;27.50;34.90;;;;;;5052077;28;20465;-69
2022/04/11 13:14:47;;;;;;;3.10;0.90;;;27.50;34.80;;;;;;5051810;28;20052;-69
2022/04/11 13:19:58;;;;;;;1.33;0.77;;;27.60;34.80;;;;;;5051508;28;20041;-69
2022/04/11 13:22:25;;;;;;;2.47;0.90;;;27.60;34.60;;;;;;5071032;28;20029;-69
2022/04/11 13:24:51;;;;;;;1.45;0.82;;;27.60;34.40;;;;;;5072396;28;20117;-69
2022/04/11 13:27:17;;;;;;;1.45;0.93;;;27.50;34.20;;;;;;5072013;28;20075;-69
2022/04/11 13:29:43;;;;;;;1.63;0.90;;;27.50;34.30;;;;;;5072761;28;20063;-69
2022/04/11 13:32:09;;;;;;;2.13;0.82;;;27.60;34.20;;;;;;5072849;28;20040;-69
2022/04/11 13:34:35;;;;;;;1.95;0.70;;;27.60;34.00;;;;;;5071951;28;20502;-69
2022/04/11 13:37:01;;;;;;;1.33;1.00;;;27.70;33.90;;;;;;5072081;28;20056;-69
2022/04/11 13:39:27;;;;;;;2.13;0.73;;;27.70;33.80;;;;;;5071379;28;20044;-68
2022/04/11 13:41:53;;;;;;;1.88;1.00;;;27.40;33.80;;;;;;5071444;28;20043;-69
2022/04/11 13:44:20;;;;;;;2.40;1.02;;;27.10;34.20;;;;;;5071619;28;20491;-69
2022/04/11 13:46:47;;;;;;;1.60;0.80;;;26.70;34.80;;;;;;5071687;28;20384;-69
2022/04/11 13:49:13;;;;;;;1.08;0.70;;;26.30;35.30;;;;;;5070808;28;20044;-68
2022/04/11 13:51:40;;;;;;;2.35;0.90;;;26.00;35.90;;;;;;5071905;28;20538;-69
2022/04/11 13:54:06;;;;;;;2.25;0.90;;;25.70;36.30;;;;;;5071555;28;20479;-69
2022/04/11 13:56:33;;;;;;;2.22;1.00;;;25.50;36.60;;;;;;5069909;28;20055;-69
2022/04/11 13:58:59;;;;;;;1.50;0.90;;;25.30;37.00;;;;;;5069822;28;20516;-69
2022/04/11 14:01:27;;;;;;;1.60;0.70;;;25.20;37.30;;;;;;5070525;28;20037;-68
2022/04/11 14:03:55;;;;;;;2.20;0.90;;;25.00;37.60;;;;;;5071288;28;20111;-69
2022/04/11 14:06:20;;;;;;;1.58;0.70;;;24.90;37.80;;;;;;5070842;28;20048;-69
2022/04/11 14:08:46;;;;;;;1.27;0.90;;;24.80;38.10;;;;;;5071913;28;20051;-69
2022/04/11 14:11:14;;;;;;;1.48;0.70;;;24.70;38.30;;;;;;5072043;28;20041;-69
2022/04/11 14:13:40;;;;;;;1.10;0.70;;;24.50;38.40;;;;;;5072192;28;20052;-69
2022/04/11 14:16:06;;;;;;;1.30;0.90;;;24.50;38.70;;;;;;5071026;28;20135;-69
2022/04/11 14:18:31;;;;;;;2.45;0.90;;;24.40;38.90;;;;;;5070823;28;20463;-69
2022/04/11 14:20:57;;;;;;;1.55;0.90;;;24.30;39.10;;;;;;5053627;28;20082;-69
2022/04/11 14:23:24;;;;;;;1.40;0.70;;;24.20;39.20;;;;;;5070982;28;20514;-68
2022/04/11 14:25:52;;;;;;;2.65;0.70;;;24.20;39.40;;;;;;5070704;28;20135;-69
2022/04/11 14:28:18;;;;;;;0.90;0.60;;;24.10;39.50;;;;;;5070057;28;20125;-69
2022/04/11 14:30:44;;;;;;;1.83;0.88;;;24.10;39.70;;;;;;5071456;28;20362;-69
2022/04/11 14:33:12;;;;;;;0.82;0.63;;;24.00;39.80;;;;;;5070605;28;20151;-68
2022/04/11 14:35:39;;;;;;;2.03;0.75;;;23.90;40.00;;;;;;5071106;28;20037;-68
2022/04/11 14:38:05;;;;;;;1.80;0.90;;;23.90;40.90;;;;;;5070413;28;20041;-69
2022/04/11 14:40:31;;;;;;;1.50;0.90;;;23.80;40.10;;;;;;5070929;28;20086;-69
2022/04/11 14:42:57;;;;;;;1.80;0.93;;;23.70;40.30;;;;;;5068518;28;20048;-69
2022/04/11 14:45:23;;;;;;;1.30;0.60;;;23.70;40.40;;;;;;5061673;28;20036;-69
2022/04/11 14:47:50;;;;;;;1.45;0.65;;;23.70;40.50;;;;;;5050294;28;20151;-68
2022/04/11 14:50:15;;;;;;;1.13;0.90;;;23.60;40.60;;;;;;5050583;28;20151;-68
2022/04/11 14:52:41;;;;;;;1.63;0.90;;;23.60;40.70;;;;;;5050526;28;20170;-69
2022/04/11 14:55:08;;;;;;;1.20;0.90;;;23.50;40.80;;;;;;5050894;28;20083;-69
2022/04/11 14:57:33;;;;;;;1.55;0.70;;;23.60;41.00;;;;;;5050171;28;20373;-69
2022/04/11 15:00:00;;;;;;;2.20;0.88;;;23.50;40.90;;;;;;5050186;28;20052;-69
2022/04/11 15:02:25;;;;;;;1.45;0.85;;;23.50;40.90;;;;;;5050642;28;20484;-68
2022/04/11 15:04:51;;;;;;;1.35;0.70;;;23.40;41.00;;;;;;5049980;28;20045;-69
2022/04/11 15:07:17;;;;;;;1.02;0.70;;;23.40;41.20;;;;;;5049167;28;20047;-69
2022/04/11 15:09:43;;;;;;;2.15;0.80;;;23.30;41.20;;;;;;5050122;28;20044;-68
2022/04/11 15:12:10;;;;;;;1.02;0.70;;;23.30;41.30;;;;;;5050082;28;20068;-69
2022/04/11 15:14:35;;;;;;;1.38;0.70;;;23.30;41.40;;;;;;5050247;28;20037;-69
2022/04/11 15:17:01;;;;;;;2.15;0.90;;;23.20;41.50;;;;;;5054305;28;20466;-69
2022/04/11 15:19:27;;;;;;;1.05;0.80;;;23.20;41.60;;;;;;5069779;28;20115;-69
2022/04/11 15:21:54;;;;;;;1.40;0.70;;;23.20;41.70;;;;;;5070219;28;20040;-69
2022/04/11 15:24:20;;;;;;;1.17;0.70;;;23.10;41.70;;;;;;5070426;28;20170;-69
2022/04/11 15:26:47;;;;;;;1.17;0.68;;;23.10;41.80;;;;;;5069949;28;20041;-69
2022/04/11 15:29:14;;;;;;;1.08;0.80;;;23.10;41.80;;;;;;5063629;28;20141;-69
2022/04/11 15:31:39;;;;;;;1.33;0.70;;;23.10;42.00;;;;;;5070286;28;20044;-69
2022/04/11 15:34:09;;;;;;;1.52;0.90;;;23.00;42.00;;;;;;5069943;28;20051;-68
2022/04/11 15:36:35;;;;;;;1.50;0.90;;;23.00;42.00;;;;;;5070520;28;20045;-69
2022/04/11 15:39:02;;;;;;;1.92;0.80;;;23.00;42.20;;;;;;5067592;28;20040;-68
2022/04/11 15:41:29;;;;;;;1.95;0.82;;;22.90;42.20;;;;;;5073361;28;20090;-69
2022/04/11 15:43:58;;;;;;;2.67;0.85;;;22.90;42.20;;;;;;5074431;28;20036;-69
2022/04/11 15:46:24;;;;;;;1.65;0.70;;;22.80;42.20;;;;;;5073230;28;20126;-69
2022/04/11 15:48:50;;;;;;;2.03;0.77;;;22.80;42.30;;;;;;5073438;28;20071;-68
2022/04/11 15:51:16;;;;;;;1.40;0.80;;;22.80;42.40;;;;;;5073656;28;20126;-69
2022/04/11 15:53:42;;;;;;;1.00;0.63;;;22.80;42.40;;;;;;5073909;28;20037;-69
2022/04/11 15:56:07;;;;;;;0.75;0.70;;;22.70;42.50;;;;;;5073634;28;20043;-69
2022/04/11 15:58:33;;;;;;;0.80;0.80;;;22.70;42.50;;;;;;5073734;28;20040;-69
2022/04/11 16:01:00;;;;;;;1.55;0.80;;;22.70;42.60;;;;;;5073950;28;20034;-68
2022/04/11 16:03:26;;;;;;;1.33;0.73;;;22.60;42.60;;;;;;5073538;28;20040;-69
2022/04/11 16:05:56;;;;;;;1.77;1.00;;;22.60;42.70;;;;;;5074027;28;20460;-68
2022/04/11 16:08:23;;;;;;;1.02;0.80;;;22.60;42.80;;;;;;5073290;28;20106;-69
2022/04/11 16:10:48;;;;;;;2.75;0.73;;;22.50;42.80;;;;;;5073675;28;20042;-69
2022/04/11 16:13:14;;;;;;;1.65;0.90;;;22.50;42.80;;;;;;5073338;28;20494;-69
2022/04/11 16:15:40;;;;;;;1.63;0.90;;;22.50;42.90;;;;;;5073191;28;20044;-68
2022/04/11 16:18:06;;;;;;;1.50;0.77;;;22.40;43.70;;;;;;5072790;28;20045;-69
2022/04/11 16:20:32;;;;;;;1.13;0.70;;;22.50;43.00;;;;;;5073415;28;20039;-69
2022/04/11 16:22:58;;;;;;;1.23;0.80;;;22.40;43.00;;;;;;5073412;28;20036;-69
2022/04/11 16:25:24;;;;;;;1.35;0.90;;;22.40;43.00;;;;;;5073795;28;20039;-69
2022/04/11 16:27:50;;;;;;;1.60;0.95;;;22.40;43.10;;;;;;5069458;28;20041;-68
2022/04/11 16:30:15;;;;;;;1.30;0.70;;;22.30;43.10;;;;;;5054066;28;20037;-69
2022/04/11 16:32:41;;;;;;;1.10;0.88;;;22.30;43.20;;;;;;5053387;28;20087;-69
2022/04/11 16:35:07;;;;;;;2.72;1.00;;;22.30;43.20;;;;;;5053769;28;20048;-69
2022/04/11 16:37:34;;;;;;;0.80;0.80;;;22.20;44.00;;;;;;5053468;28;20040;-69
2022/04/11 16:40:00;;;;;;;0.98;0.70;;;22.20;43.30;;;;;;5052889;28;20041;-69
2022/04/11 16:42:25;;;;;;;0.98;0.73;;;22.20;43.40;;;;;;5052809;28;20033;-69
2022/04/11 16:44:51;;;;;;;1.15;0.82;;;22.20;43.40;;;;;;5053368;28;20403;-68
2022/04/11 16:47:17;;;;;;;1.23;0.90;;;22.20;43.50;;;;;;5053580;28;20033;-69
2022/04/11 16:49:42;;;;;;;1.30;0.77;;;22.20;43.50;;;;;;5052151;28;20044;-68
2022/04/11 16:52:08;;;;;;;1.63;0.88;;;22.10;43.50;;;;;;5053039;28;20080;-69
2022/04/11 16:54:34;;;;;;;1.70;0.80;;;22.10;43.60;;;;;;5053158;28;20035;-68
2022/04/11 16:57:00;;;;;;;3.22;0.90;;;22.10;43.60;;;;;;5052612;28;20053;-69
2022/04/11 16:59:25;;;;;;;1.63;1.00;;;22.00;43.50;;;;;;5051470;28;20037;-69
2022/04/11 17:01:51;;;;;;;1.05;0.77;;;22.00;43.60;;;;;;5052888;28;20095;-68
2022/04/11 17:04:18;;;;;;;1.63;0.73;;;22.00;43.60;;;;;;5052205;28;20124;-69
2022/04/11 17:06:43;;;;;;;1.48;0.80;;;22.00;43.60;;;;;;5052707;28;20091;-69
2022/04/11 17:09:09;;;;;;;1.27;0.73;;;21.90;43.70;;;;;;5052252;28;20056;-68
2022/04/11 17:11:36;;;;;;;1.05;0.77;;;22.00;43.70;;;;;;5052048;28;20045;-68
2022/04/11 17:14:03;;;;;;;1.27;0.90;;;21.90;43.70;;;;;;5052512;28;20128;-68
2022/04/11 17:19:13;;;;;;;2.45;0.80;;;21.90;43.70;;;;;;5051606;28;20160;-68
2022/04/11 17:21:39;;;;;;;1.20;0.73;;;21.90;43.80;;;;;;5053055;28;20190;-69
2022/04/11 17:24:05;;;;;;;1.65;1.08;;;21.80;43.80;;;;;;5071861;28;20135;-69
2022/04/11 17:26:31;;;;;;;2.00;0.80;;;21.80;43.80;;;;;;5072285;28;20049;-68
2022/04/11 17:28:58;;;;;;;1.35;0.77;;;21.80;43.80;;;;;;5071736;28;20043;-68
2022/04/11 17:31:23;;;;;;;2.05;0.80;;;21.80;43.80;;;;;;5072359;28;20059;-69
2022/04/11 17:33:50;;;;;;;1.00;0.80;;;21.70;43.80;;;;;;5071598;28;20495;-69
2022/04/11 17:36:19;;;;;;;1.17;0.80;;;21.70;43.80;;;;;;5070952;28;20478;-68
2022/04/11 17:38:46;;;;;;;1.05;0.70;;;21.70;43.90;;;;;;5071404;28;20033;-69
2022/04/11 17:41:12;;;;;;;1.45;0.60;;;21.70;43.90;;;;;;5071563;28;20430;-68
2022/04/11 17:43:37;;;;;;;2.63;0.90;;;21.60;43.90;;;;;;5071717;28;20093;-68
2022/04/11 17:46:04;;;;;;;2.00;0.73;;;21.60;43.90;;;;;;5071895;28;20066;-69
2022/04/11 17:48:32;;;;;;;2.03;0.77;;;21.60;43.90;;;;;;5070734;28;20507;-69
2022/04/11 17:50:59;;;;;;;1.08;0.77;;;21.60;44.00;;;;;;5071959;28;20521;-69
2022/04/11 17:53:26;;;;;;;1.25;0.80;;;21.50;44.00;;;;;;5072042;28;20042;-69
2022/04/11 17:55:52;;;;;;;1.23;0.80;;;21.50;44.00;;;;;;5071763;28;20503;-69
2022/04/11 17:58:19;;;;;;;1.77;0.70;;;21.50;44.00;;;;;;5070679;28;20036;-68
2022/04/11 18:00:44;;;;;;;1.55;0.82;;;21.50;44.00;;;;;;5070961;28;20169;-68
2022/04/11 18:03:11;;;;;;;1.30;0.55;;;21.50;44.10;;;;;;5071050;28;20044;-69
2022/04/11 18:05:36;;;;;;;0.85;0.70;;;21.40;44.00;;;;;;5071596;28;20462;-69
2022/04/11 18:08:02;;;;;;;1.30;0.82;;;21.40;44.00;;;;;;5053461;28;20144;-69
2022/04/11 18:10:30;;;;;;;2.58;1.00;;;21.40;44.10;;;;;;5051962;28;20385;-69
2022/04/11 18:12:57;;;;;;;1.25;0.80;;;21.40;44.10;;;;;;5051306;28;20041;-68
2022/04/11 18:15:23;;;;;;;1.15;0.75;;;21.40;44.10;;;;;;5051561;28;20093;-69
2022/04/11 18:17:50;;;;;;;1.83;0.77;;;21.40;44.20;;;;;;5050319;28;20068;-69
2022/04/11 18:20:20;;;;;;;1.20;0.80;;;21.30;44.10;;;;;;5051273;28;20463;-68
2022/04/11 18:22:47;;;;;;;1.33;0.80;;;21.30;44.10;;;;;;5061462;28;20033;-69
2022/04/11 18:25:13;;;;;;;0.80;0.75;;;21.30;44.20;;;;;;5071613;28;20120;-68
2022/04/11 18:27:39;;;;;;;2.85;0.90;;;21.30;44.20;;;;;;5070708;28;20123;-68
2022/04/11 18:32:50;;;;;;;1.40;0.90;;;21.20;44.20;;;;;;5070666;28;20504;-69
2022/04/11 18:35:17;;;;;;;1.25;0.73;;;21.20;44.30;;;;;;5071276;28;20040;-69
2022/04/11 18:37:44;;;;;;;1.98;0.85;;;21.10;44.20;;;;;;5070861;28;20032;-68
2022/04/11 18:40:11;;;;;;;1.40;0.90;;;21.10;44.20;;;;;;5069166;28;20051;-68
2022/04/11 18:42:37;;;;;;;1.10;0.90;;;21.10;44.30;;;;;;5070563;28;20048;-69
2022/04/11 18:45:05;;;;;;;2.10;1.00;;;21.10;44.30;;;;;;5070761;28;20037;-68
2022/04/11 18:47:31;;;;;;;1.38;0.80;;;21.10;44.40;;;;;;5070970;28;20340;-68
2022/04/11 18:49:57;;;;;;;2.05;0.90;;;21.10;44.40;;;;;;5069796;28;20132;-68
2022/04/11 18:52:22;;;;;;;2.15;0.88;;;21.00;44.30;;;;;;5070939;28;20372;-69
2022/04/11 18:54:49;;;;;;;1.13;0.70;;;21.00;44.30;;;;;;5070761;28;20079;-68
2022/04/11 18:57:18;;;;;;;1.00;0.80;;;21.00;44.40;;;;;;5070045;28;20051;-69
2022/04/11 18:59:44;;;;;;;1.33;0.80;;;21.00;44.40;;;;;;5070296;28;20036;-69
2022/04/11 19:02:10;;;;;;;1.00;0.70;;;21.00;44.40;;;;;;5070885;28;20127;-68
2022/04/11 19:04:36;;;;;;;1.23;0.80;;;21.00;44.40;;;;;;5070138;28;20127;-68
2022/04/11 19:07:02;;;;;;;0.80;0.70;;;21.00;44.40;;;;;;5070499;28;20608;-68
2022/04/11 19:09:27;;;;;;;1.10;0.70;;;21.00;44.50;;;;;;5070056;28;20041;-68
2022/04/11 19:11:53;;;;;;;1.02;0.77;;;20.90;44.50;;;;;;5069365;28;20055;-69
2022/04/11 19:14:19;;;;;;;1.05;0.80;;;20.90;44.50;;;;;;5069339;28;20055;-69
2022/04/11 19:16:45;;;;;;;0.93;0.68;;;20.90;44.50;;;;;;5069214;28;20055;-68
2022/04/11 19:19:10;;;;;;;2.65;0.70;;;20.90;44.50;;;;;;5069630;28;20044;-69
2022/04/11 19:21:36;;;;;;;2.00;0.90;;;20.90;44.60;;;;;;5070368;28;20501;-68
2022/04/11 19:24:03;;;;;;;1.05;0.73;;;20.80;44.50;;;;;;5070533;28;20048;-69
2022/04/11 19:26:29;;;;;;;1.25;0.80;;;20.90;44.60;;;;;;5070261;28;20494;-69
2022/04/11 19:28:58;;;;;;;1.52;0.80;;;20.80;44.60;;;;;;5057252;28;20514;-69
2022/04/11 19:31:29;;;;;;;1.23;0.90;;;20.80;44.60;;;;;;5050550;28;20037;-69
2022/04/11 19:33:57;;;;;;;1.40;0.75;;;20.80;44.60;;;;;;5049985;28;20033;-68
2022/04/11 19:36:23;;;;;;;;;;;20.80;44.60;;;;;;5050430;28;20407;-69
2022/04/11 19:38:49;;;;;;;1.30;1.00;;;20.80;44.60;;;;;;5057048;28;19920;-69
2022/04/11 19:41:17;;;;;;;2.20;0.98;;;20.80;44.60;;;;;;5068824;28;20039;-69
2022/04/11 19:43:44;;;;;;;1.45;0.80;;;20.70;44.60;;;;;;5070406;28;20539;-69
2022/04/11 19:46:13;;;;;;;0.90;0.80;;;20.70;44.60;;;;;;5070445;28;20094;-69
2022/04/11 19:51:24;;;;;;;1.17;0.80;;;20.70;44.70;;;;;;5070567;28;20049;-68
2022/04/11 19:53:51;;;;;;;1.13;0.75;;;20.70;44.70;;;;;;5070168;28;20109;-69
2022/04/11 19:56:17;;;;;;;1.33;0.80;;;20.70;44.70;;;;;;5068827;28;20044;-69
2022/04/11 19:58:43;;;;;;;1.10;0.80;;;20.70;44.70;;;;;;5069577;28;20395;-69
2022/04/11 20:01:11;;;;;;;1.58;0.90;;;20.70;44.80;;;;;;5070105;28;20040;-69
2022/04/11 20:03:37;;;;;;;;;;;20.70;44.80;;;;;;5070251;28;20043;-69
2022/04/11 20:06:03;;;;;;;1.00;0.75;;;20.70;44.80;;;;;;5070190;28;19918;-69
2022/04/11 20:08:29;;;;;;;0.90;0.80;;;20.70;45.50;;;;;;5069191;28;20131;-68
2022/04/11 20:10:55;;;;;;;2.03;0.82;;;20.60;44.70;;;;;;5069961;28;20071;-69
2022/04/11 20:13:21;;;;;;;0.82;0.80;;;20.60;44.80;;;;;;5069582;28;20044;-69
2022/04/11 20:15:46;;;;;;;1.75;0.90;;;20.60;44.80;;;;;;5069787;28;20044;-68
2022/04/11 20:18:15;;;;;;;1.00;0.68;;;20.60;44.80;;;;;;5068935;28;20127;-68
2022/04/11 20:20:43;;;;;;;2.63;0.80;;;20.60;44.80;;;;;;5068577;28;20094;-68
2022/04/11 20:23:09;;;;;;;0.77;0.68;;;20.60;44.80;;;;;;5070621;28;20365;-68